LIVE Streaming HD
Get Adobe Flash player
Annunci di Google
Annunci di Vedetta
Annunci di Google
Fasi Lunari
Satellite
satellite e T nubi
Previsione
Dati meteo stazione (refresh automatico ogni minuto)
Latina(LT) VENTO: VELOCITÀ   PIOGGIA: QTA GIORNO TEMPERATURA: ATTUALE
SPOT: Latina lido
(Hotel Tirreno) Posizione su Googlemap: Latitudine 41.41 Longitudine 12.84
RAFFICA MASSIMA: QTA MENSILE: MASSIMA:
VELOCITÀ MEDIA: QTA ANNUALE: MINIMA:
DIREZIONE: UMIDITÀ: WIND CHILL:
TIPO: DEW POINT:
BEAUFORT: PRESSIONE:
I nostri partner
Latina(LT) nelle ultime ore
Applica filtri in visualizzazione Intervallo delle letture nelle ultime

Ora Direzione Vento Velocita' Vento Media Vento Raffica Max. Temperatura Wind Chill Pioggia Pressione
01:07:25319 °(NW)1.2 Kts1.2 Kts4.7 Kts23.9 °C23.1 °C0 mm1021.2 Hpa
01:02:08319 °(NW)1.2 Kts1.2 Kts4.7 Kts23.7 °C23 °C0 mm1021.2 Hpa
00:57:51319 °(NW)1.2 Kts2.1 Kts4.7 Kts23.9 °C22.7 °C0 mm1021.2 Hpa
00:52:33319 °(NW)1.2 Kts3 Kts4.7 Kts23.9 °C22.4 °C0 mm1021.2 Hpa
00:47:40319 °(NW)3.8 Kts3 Kts4.7 Kts23.9 °C22.4 °C0 mm1021.2 Hpa
00:42:26319 °(NW)1.2 Kts3 Kts4.7 Kts23.9 °C22.4 °C0 mm1021.2 Hpa
00:37:22313 °(NW)3.8 Kts2.1 Kts4.7 Kts24.1 °C22.9 °C0 mm1021.2 Hpa
00:31:25286 °(WNW)1.2 Kts1.2 Kts3.8 Kts24.3 °C23.5 °C0 mm1021.2 Hpa
00:27:14281 °(W)2.1 Kts0.3 Kts3 Kts24.4 °C23.9 °C0 mm1021.2 Hpa
00:22:01279 °(W)0.3 Kts0.3 Kts2.1 Kts24.4 °C24 °C0 mm1021.2 Hpa
00:17:48279 °(W)1.2 Kts0.3 Kts1.2 Kts24.4 °C24 °C0 mm1021.3 Hpa
00:12:33279 °(W)0 Kts0 Kts1.2 Kts24.5 °C24.5 °C0 mm1021.2 Hpa
00:07:19279 °(W)0 Kts0.3 Kts1.2 Kts24.6 °C24.1 °C0 mm1021.3 Hpa
00:02:05279 °(W)0.3 Kts0.3 Kts1.2 Kts24.6 °C24.1 °C0 mm1021.3 Hpa
23:57:53279 °(W)0.3 Kts0.3 Kts9 Kts24.6 °C24.2 °C0 mm1021.2 Hpa
23:52:38279 °(W)0.3 Kts0.3 Kts9 Kts24.7 °C24.2 °C0 mm1021.2 Hpa
23:47:25279 °(W)0.3 Kts1.2 Kts9 Kts24.7 °C24 °C0 mm1021.2 Hpa
23:42:11279 °(W)0.3 Kts1.2 Kts9 Kts24.7 °C24 °C0 mm1021.2 Hpa
23:37:05279 °(W)1.2 Kts2.1 Kts9 Kts24.8 °C23.7 °C0 mm1021.2 Hpa
23:32:41278 °(W)2.1 Kts2.1 Kts9 Kts24.7 °C23.8 °C0 mm1021.2 Hpa
23:27:26276 °(W)2.1 Kts1.2 Kts9 Kts24.9 °C24.1 °C0 mm1021.3 Hpa
23:22:12276 °(W)2.1 Kts1.2 Kts9 Kts24.9 °C24.1 °C0 mm1021.2 Hpa
23:16:58276 °(W)1.2 Kts1.2 Kts9 Kts24.9 °C24.2 °C0 mm1021.2 Hpa
23:12:47276 °(W)2.1 Kts1.2 Kts9 Kts25 °C24.3 °C0 mm1021.1 Hpa